createdAt,value
2018-08-22T00:01:59.347Z,14.43
2018-08-22T00:04:28.069Z,14.39
2018-08-22T00:06:56.804Z,14.43
2018-08-22T00:09:25.578Z,14.45
2018-08-22T00:11:54.226Z,14.43
2018-08-22T00:14:23.768Z,14.42
2018-08-22T00:16:52.424Z,14.42
2018-08-22T00:19:21.156Z,14.33
2018-08-22T00:21:49.728Z,14.24
2018-08-22T00:24:18.352Z,14.24
2018-08-22T00:26:47.322Z,14.27
2018-08-22T00:29:16.181Z,14.25
2018-08-22T00:31:45.808Z,14.18
2018-08-22T00:34:14.388Z,14.05
2018-08-22T00:36:43.126Z,13.95
2018-08-22T00:39:12.940Z,13.92
2018-08-22T00:41:41.564Z,13.85
2018-08-22T00:44:10.292Z,13.71
2018-08-22T00:46:38.889Z,13.71
2018-08-22T00:49:07.633Z,13.70
2018-08-22T00:51:36.357Z,13.66
2018-08-22T00:54:04.957Z,13.75
2018-08-22T00:56:33.531Z,13.69
2018-08-22T00:59:02.196Z,13.58
2018-08-22T01:01:30.786Z,13.51
2018-08-22T01:03:59.886Z,13.46
2018-08-22T01:06:28.584Z,13.52
2018-08-22T01:08:58.185Z,13.57
2018-08-22T01:11:26.976Z,13.51
2018-08-22T01:13:55.946Z,13.47
2018-08-22T01:16:24.676Z,13.42
2018-08-22T01:18:53.597Z,13.44
2018-08-22T01:21:22.195Z,13.42
2018-08-22T01:23:51.097Z,13.44
2018-08-22T01:26:19.796Z,13.49
2018-08-22T01:28:48.358Z,13.49
2018-08-22T01:31:17.015Z,13.52
2018-08-22T01:33:45.623Z,13.46
2018-08-22T01:36:14.449Z,13.38
2018-08-22T01:38:44.338Z,13.26
2018-08-22T01:41:13.017Z,13.25
2018-08-22T01:43:41.796Z,13.13
2018-08-22T01:46:10.505Z,13.04
2018-08-22T01:48:40.000Z,13.00
2018-08-22T01:51:08.637Z,13.00
2018-08-22T01:53:37.205Z,13.02
2018-08-22T01:56:06.012Z,13.05
2018-08-22T01:58:34.653Z,13.07
2018-08-22T02:01:03.352Z,13.09
2018-08-22T02:03:32.232Z,13.17
2018-08-22T02:06:01.088Z,13.24
2018-08-22T02:08:29.717Z,13.31
2018-08-22T02:10:58.423Z,13.44
2018-08-22T02:13:27.121Z,13.46
2018-08-22T02:15:56.129Z,13.42
2018-08-22T02:18:24.709Z,13.37
2018-08-22T02:20:53.304Z,13.27
2018-08-22T02:23:22.492Z,13.21
2018-08-22T02:25:51.178Z,13.24
2018-08-22T02:28:19.842Z,13.30
2018-08-22T02:30:48.702Z,13.27
2018-08-22T02:33:17.452Z,13.21
2018-08-22T02:35:46.953Z,13.25
2018-08-22T02:38:20.696Z,13.23
2018-08-22T02:40:49.265Z,13.31
2018-08-22T02:43:18.600Z,13.32
2018-08-22T02:45:47.656Z,13.21
2018-08-22T02:48:16.784Z,13.21
2018-08-22T02:50:45.361Z,13.23
2018-08-22T02:53:14.036Z,13.30
2018-08-22T02:55:43.256Z,13.31
2018-08-22T02:58:12.960Z,13.19
2018-08-22T03:00:41.648Z,13.04
2018-08-22T03:03:10.256Z,12.95
2018-08-22T03:05:38.831Z,12.96
2018-08-22T03:08:07.665Z,12.90
2018-08-22T03:10:36.292Z,12.86
2018-08-22T03:13:04.892Z,12.84
2018-08-22T03:15:34.282Z,12.78
2018-08-22T03:18:03.575Z,12.68
2018-08-22T03:20:32.254Z,12.60
2018-08-22T03:23:00.934Z,12.59
2018-08-22T03:25:29.469Z,12.60
2018-08-22T03:27:58.197Z,12.62
2018-08-22T03:30:26.833Z,12.65
2018-08-22T03:32:56.589Z,12.62
2018-08-22T03:35:25.270Z,12.68
2018-08-22T03:37:53.873Z,12.66
2018-08-22T03:40:22.528Z,12.67
2018-08-22T03:42:51.090Z,12.64
2018-08-22T03:45:19.759Z,12.57
2018-08-22T03:47:48.320Z,12.54
2018-08-22T03:50:16.966Z,12.53
2018-08-22T03:52:45.669Z,12.47
2018-08-22T03:55:14.350Z,12.44
2018-08-22T03:57:42.973Z,12.46
2018-08-22T04:00:12.318Z,12.52
2018-08-22T04:02:41.370Z,12.56
2018-08-22T04:05:10.084Z,12.63
2018-08-22T04:07:38.669Z,12.74
2018-08-22T04:10:07.260Z,12.89
2018-08-22T04:12:36.108Z,12.87
2018-08-22T04:15:04.832Z,12.94
2018-08-22T04:17:37.603Z,13.04
2018-08-22T04:20:06.899Z,13.02
2018-08-22T04:22:37.325Z,13.18
2018-08-22T04:25:06.157Z,13.29
2018-08-22T04:27:34.814Z,13.32
2018-08-22T04:30:03.601Z,13.41
2018-08-22T04:32:32.211Z,13.53
2018-08-22T04:35:00.872Z,13.71
2018-08-22T04:37:29.588Z,13.77
2018-08-22T04:39:58.453Z,13.78
2018-08-22T04:42:27.630Z,13.89
2018-08-22T04:44:56.447Z,13.95
2018-08-22T04:47:25.133Z,14.03
2018-08-22T04:49:53.849Z,14.10
2018-08-22T04:52:22.544Z,14.20
2018-08-22T04:54:51.410Z,14.29
2018-08-22T04:57:21.390Z,14.44
2018-08-22T04:59:49.968Z,14.56
2018-08-22T05:02:18.567Z,14.63
2018-08-22T05:04:51.116Z,14.72
2018-08-22T05:07:19.715Z,14.89
2018-08-22T05:09:48.526Z,15.03
2018-08-22T05:12:17.277Z,15.16
2018-08-22T05:14:45.965Z,15.24
2018-08-22T05:17:14.788Z,15.30
2018-08-22T05:19:43.446Z,15.30
2018-08-22T05:22:12.376Z,15.34
2018-08-22T05:24:43.136Z,15.43
2018-08-22T05:27:11.698Z,15.48
2018-08-22T05:29:40.261Z,15.55
2018-08-22T05:32:08.978Z,15.64
2018-08-22T05:34:37.565Z,15.75
2018-08-22T05:37:06.314Z,15.79
2018-08-22T05:39:36.033Z,15.91
2018-08-22T05:42:04.780Z,15.98
2018-08-22T05:44:33.381Z,16.11
2018-08-22T05:47:02.117Z,16.19
2018-08-22T05:49:30.765Z,16.30
2018-08-22T05:51:59.419Z,16.38
2018-08-22T05:54:28.129Z,16.48
2018-08-22T05:56:56.905Z,16.60
2018-08-22T05:59:26.583Z,16.76
2018-08-22T06:01:55.189Z,16.90
2018-08-22T06:04:23.869Z,17.03
2018-08-22T06:06:52.615Z,17.18
2018-08-22T06:09:21.353Z,17.33
2018-08-22T06:11:49.975Z,17.50
2018-08-22T06:14:18.572Z,17.64
2018-08-22T06:16:47.328Z,17.81
2018-08-22T06:19:16.016Z,17.98
2018-08-22T06:21:44.676Z,18.16
2018-08-22T06:24:13.349Z,18.32
2018-08-22T06:26:41.995Z,18.51
2018-08-22T06:29:10.577Z,18.71
2018-08-22T06:31:39.302Z,18.88
2018-08-22T06:34:07.955Z,18.97
2018-08-22T06:36:36.557Z,19.09
2018-08-22T06:39:08.423Z,19.15
2018-08-22T06:41:37.005Z,19.28
2018-08-22T06:44:05.667Z,19.36
2018-08-22T06:46:34.285Z,19.46
2018-08-22T06:49:02.889Z,19.54
2018-08-22T06:51:31.450Z,19.63
2018-08-22T06:54:00.122Z,19.69
2018-08-22T06:56:28.717Z,19.76
2018-08-22T06:58:57.375Z,19.83
2018-08-22T07:01:26.015Z,19.97
2018-08-22T07:03:54.604Z,20.06
2018-08-22T07:06:23.185Z,20.13
2018-08-22T07:08:51.877Z,20.25
2018-08-22T07:11:20.545Z,20.39
2018-08-22T07:13:49.148Z,20.50
2018-08-22T07:16:17.753Z,20.57
2018-08-22T07:18:46.550Z,20.70
2018-08-22T07:21:15.150Z,20.79
2018-08-22T07:23:43.845Z,20.92
2018-08-22T07:26:12.498Z,21.02
2018-08-22T07:28:41.428Z,21.11
2018-08-22T07:31:09.988Z,21.23
2018-08-22T07:33:40.681Z,21.34
2018-08-22T07:36:09.381Z,21.51
2018-08-22T07:38:38.097Z,21.67
2018-08-22T07:41:06.688Z,21.80
2018-08-22T07:43:35.377Z,21.94
2018-08-22T07:46:04.060Z,21.96
2018-08-22T07:48:32.650Z,22.07
2018-08-22T07:51:01.383Z,22.13
2018-08-22T07:53:30.076Z,22.27
2018-08-22T07:55:58.698Z,22.40
2018-08-22T07:58:27.332Z,22.48
2018-08-22T08:00:56.228Z,22.55
2018-08-22T08:03:24.920Z,22.61
2018-08-22T08:05:53.553Z,22.68
2018-08-22T08:08:22.198Z,22.81
2018-08-22T08:10:51.499Z,22.91
2018-08-22T08:13:29.797Z,22.89
2018-08-22T08:15:59.405Z,22.94
2018-08-22T08:18:28.228Z,23.05
2018-08-22T08:20:56.772Z,23.13
2018-08-22T08:23:25.369Z,23.17
2018-08-22T08:25:53.970Z,23.26
2018-08-22T08:28:23.280Z,23.38
2018-08-22T08:30:52.266Z,23.41
2018-08-22T08:33:21.108Z,23.47
2018-08-22T08:35:49.749Z,23.53
2018-08-22T08:38:18.720Z,23.58
2018-08-22T08:40:48.140Z,23.80
2018-08-22T08:43:17.331Z,24.00
2018-08-22T08:45:46.024Z,24.04
2018-08-22T08:48:14.768Z,24.07
2018-08-22T08:50:43.494Z,24.20
2018-08-22T08:53:12.126Z,24.36
2018-08-22T08:55:41.838Z,24.33
2018-08-22T08:58:10.402Z,24.20
2018-08-22T09:00:39.014Z,24.08
2018-08-22T09:03:07.597Z,24.05
2018-08-22T09:05:36.180Z,24.06
2018-08-22T09:08:04.917Z,24.18
2018-08-22T09:10:33.733Z,24.32
2018-08-22T09:13:02.490Z,24.42
2018-08-22T09:15:31.145Z,24.55
2018-08-22T09:17:59.965Z,24.65
2018-08-22T09:20:28.963Z,24.75
2018-08-22T09:22:57.605Z,24.66
2018-08-22T09:25:26.306Z,24.71
2018-08-22T09:27:54.988Z,24.65
2018-08-22T09:30:23.907Z,24.65
2018-08-22T09:32:52.500Z,24.64
2018-08-22T09:35:21.264Z,24.72
2018-08-22T09:37:50.995Z,24.83
2018-08-22T09:40:19.670Z,25.02
2018-08-22T09:42:48.558Z,25.17
2018-08-22T09:45:17.163Z,25.18
2018-08-22T09:47:45.862Z,25.32
2018-08-22T09:50:14.633Z,25.35
2018-08-22T09:52:43.380Z,25.54
2018-08-22T09:55:12.651Z,25.64
2018-08-22T09:57:41.457Z,25.76
2018-08-22T10:00:15.352Z,25.84
2018-08-22T10:02:44.969Z,25.95
2018-08-22T10:05:13.560Z,25.89
2018-08-22T10:07:42.201Z,26.02
2018-08-22T10:10:11.018Z,26.07
2018-08-22T10:12:39.711Z,26.26
2018-08-22T10:15:08.384Z,26.29
2018-08-22T10:17:37.086Z,26.36
2018-08-22T10:20:06.381Z,26.48
2018-08-22T10:22:35.168Z,26.67
2018-08-22T10:25:03.917Z,26.86
2018-08-22T10:27:32.565Z,26.95
2018-08-22T10:30:01.282Z,27.04
2018-08-22T10:32:29.851Z,27.08
2018-08-22T10:34:58.620Z,26.97
2018-08-22T10:37:27.442Z,26.94
2018-08-22T10:39:56.257Z,26.98
2018-08-22T10:42:24.907Z,27.09
2018-08-22T10:44:54.660Z,27.25
2018-08-22T10:47:23.301Z,27.48
2018-08-22T10:49:53.047Z,27.66
2018-08-22T10:52:21.705Z,27.63
2018-08-22T10:54:50.247Z,27.62
2018-08-22T10:57:19.047Z,27.84
2018-08-22T10:59:48.296Z,27.99
2018-08-22T11:02:17.016Z,28.15
2018-08-22T11:04:45.665Z,28.31
2018-08-22T11:07:14.369Z,28.44
2018-08-22T11:09:43.055Z,28.59
2018-08-22T11:12:11.655Z,28.71
2018-08-22T11:14:40.426Z,28.86
2018-08-22T11:17:09.115Z,29.02
2018-08-22T11:19:37.811Z,29.22
2018-08-22T11:22:17.816Z,29.43
2018-08-22T11:24:57.745Z,29.86
2018-08-22T11:27:37.553Z,30.55
2018-08-22T11:30:17.416Z,31.03
2018-08-22T11:32:57.321Z,31.62
2018-08-22T11:35:24.949Z,32.21
2018-08-22T11:37:53.529Z,32.59
2018-08-22T11:40:22.656Z,33.11
2018-08-22T11:42:51.421Z,33.37
2018-08-22T11:45:20.921Z,33.53
2018-08-22T11:47:49.742Z,33.80
2018-08-22T11:50:18.309Z,34.09
2018-08-22T11:52:46.945Z,34.37
2018-08-22T11:55:15.646Z,34.67
2018-08-22T11:57:44.914Z,34.96
2018-08-22T12:00:14.500Z,35.32
2018-08-22T12:02:43.263Z,35.53
2018-08-22T12:05:11.961Z,35.99
2018-08-22T12:07:41.482Z,36.70
2018-08-22T12:10:10.171Z,36.82
2018-08-22T12:12:38.961Z,36.63
2018-08-22T12:15:07.733Z,36.41
2018-08-22T12:17:37.121Z,36.25
2018-08-22T12:20:07.233Z,36.05
2018-08-22T12:22:36.101Z,36.10
2018-08-22T12:25:04.865Z,35.90
2018-08-22T12:27:33.539Z,36.27
2018-08-22T12:30:02.273Z,36.79
2018-08-22T12:32:30.963Z,37.03
2018-08-22T12:35:00.460Z,37.15
2018-08-22T12:37:29.116Z,37.34
2018-08-22T12:39:57.964Z,37.73
2018-08-22T12:42:26.855Z,37.75
2018-08-22T12:44:55.505Z,37.88
2018-08-22T12:47:25.254Z,37.89
2018-08-22T12:49:53.975Z,38.10
2018-08-22T12:52:23.645Z,38.19
2018-08-22T12:54:52.323Z,38.45
2018-08-22T12:57:22.807Z,38.63
2018-08-22T12:59:51.504Z,38.75
2018-08-22T13:02:20.113Z,38.82
2018-08-22T13:04:48.781Z,38.27
2018-08-22T13:07:17.478Z,38.24
2018-08-22T13:09:46.680Z,38.07
2018-08-22T13:12:15.485Z,38.22
2018-08-22T13:14:44.100Z,38.15
2018-08-22T13:17:12.986Z,38.32
2018-08-22T13:19:41.581Z,38.21
2018-08-22T13:22:11.388Z,38.20
2018-08-22T13:24:40.135Z,37.86
2018-08-22T13:27:08.781Z,37.72
2018-08-22T13:29:37.376Z,37.30
2018-08-22T13:32:06.771Z,37.05
2018-08-22T13:34:36.377Z,37.64
2018-08-22T13:37:05.778Z,38.24
2018-08-22T13:39:34.484Z,38.08
2018-08-22T13:42:05.963Z,38.16
2018-08-22T13:44:34.713Z,38.38
2018-08-22T13:47:03.410Z,38.52
2018-08-22T13:49:32.082Z,38.74
2018-08-22T13:52:00.806Z,38.72
2018-08-22T13:54:29.686Z,39.08
2018-08-22T13:56:58.410Z,39.23
2018-08-22T13:59:27.050Z,39.53
2018-08-22T14:01:55.795Z,39.49
2018-08-22T14:04:25.386Z,39.02
2018-08-22T14:06:54.065Z,38.97
2018-08-22T14:09:22.796Z,38.59
2018-08-22T14:11:51.464Z,38.55
2018-08-22T14:14:20.246Z,38.83
2018-08-22T14:16:49.081Z,38.96
2018-08-22T14:19:17.736Z,39.01
2018-08-22T14:21:46.633Z,38.94
2018-08-22T14:24:15.335Z,39.05
2018-08-22T14:26:44.143Z,39.33
2018-08-22T14:29:12.705Z,39.54
2018-08-22T14:31:41.589Z,39.91
2018-08-22T14:34:11.545Z,39.90
2018-08-22T14:36:40.101Z,39.93
2018-08-22T14:39:11.095Z,40.04
2018-08-22T14:41:39.694Z,39.83
2018-08-22T14:44:08.492Z,39.68
2018-08-22T14:46:37.633Z,39.78
2018-08-22T14:49:06.533Z,39.73
2018-08-22T14:51:36.456Z,39.56
2018-08-22T14:54:05.165Z,39.72
2018-08-22T14:56:33.868Z,39.86
2018-08-22T14:59:02.689Z,39.98
2018-08-22T15:01:31.401Z,40.01
2018-08-22T15:04:00.060Z,39.94
2018-08-22T15:06:30.721Z,39.73
2018-08-22T15:09:05.728Z,39.66
2018-08-22T15:11:36.005Z,39.08
2018-08-22T15:14:05.773Z,38.96
2018-08-22T15:16:34.445Z,38.82
2018-08-22T15:19:03.077Z,38.50
2018-08-22T15:21:31.768Z,38.12
2018-08-22T15:24:00.501Z,38.05
2018-08-22T15:26:29.327Z,38.12
2018-08-22T15:28:58.082Z,38.10
2018-08-22T15:31:26.721Z,38.12
2018-08-22T15:33:55.674Z,38.11
2018-08-22T15:36:24.539Z,37.85
2018-08-22T15:38:55.383Z,37.51
2018-08-22T15:41:24.014Z,37.08
2018-08-22T15:43:53.306Z,36.86
2018-08-22T15:46:22.032Z,36.58
2018-08-22T15:48:52.084Z,36.58
2018-08-22T15:51:20.748Z,36.72
2018-08-22T15:54:14.128Z,36.49
2018-08-22T15:56:43.097Z,36.41
2018-08-22T15:59:12.594Z,36.51
2018-08-22T16:01:41.346Z,36.38
2018-08-22T16:04:10.558Z,36.26
2018-08-22T16:06:39.420Z,36.03
2018-08-22T16:09:16.113Z,36.07
2018-08-22T16:11:45.809Z,35.88
2018-08-22T16:14:15.079Z,35.54
2018-08-22T16:16:43.924Z,35.65
2018-08-22T16:19:13.286Z,35.54
2018-08-22T16:21:42.473Z,35.42
2018-08-22T16:24:11.395Z,35.38
2018-08-22T16:26:40.616Z,34.99
2018-08-22T16:29:09.377Z,34.44
2018-08-22T16:31:44.422Z,34.08
2018-08-22T16:34:13.763Z,33.82
2018-08-22T16:36:42.733Z,33.74
2018-08-22T16:39:11.732Z,33.61
2018-08-22T16:41:40.390Z,33.44
2018-08-22T16:44:10.241Z,33.23
2018-08-22T16:46:38.891Z,32.83
2018-08-22T16:49:08.993Z,32.35
2018-08-22T16:51:37.768Z,32.01
2018-08-22T16:54:10.306Z,31.75
2018-08-22T16:56:39.411Z,31.32
2018-08-22T16:59:10.293Z,30.97
2018-08-22T17:01:40.701Z,30.80
2018-08-22T17:04:09.324Z,30.67
2018-08-22T17:06:38.053Z,30.54
2018-08-22T17:09:09.421Z,30.41
2018-08-22T17:11:38.135Z,30.22
2018-08-22T17:14:06.779Z,30.02
2018-08-22T17:16:35.469Z,29.78
2018-08-22T17:19:04.313Z,29.55
2018-08-22T17:21:33.102Z,29.29
2018-08-22T17:24:01.910Z,29.04
2018-08-22T17:26:31.352Z,28.72
2018-08-22T17:29:00.874Z,28.41
2018-08-22T17:31:30.501Z,28.06
2018-08-22T17:34:01.542Z,27.79
2018-08-22T17:36:30.122Z,27.52
2018-08-22T17:38:59.890Z,27.33
2018-08-22T17:41:30.049Z,27.10
2018-08-22T17:44:04.305Z,26.86
2018-08-22T17:46:37.159Z,26.65
2018-08-22T17:49:05.973Z,26.43
2018-08-22T17:51:44.435Z,26.26
2018-08-22T17:54:13.133Z,26.00
2018-08-22T17:56:42.565Z,25.78
2018-08-22T17:59:11.373Z,25.56
2018-08-22T18:01:40.084Z,25.36
2018-08-22T18:04:08.824Z,25.19
2018-08-22T18:06:37.513Z,24.98
2018-08-22T18:09:06.517Z,24.77
2018-08-22T18:11:35.093Z,24.57
2018-08-22T18:14:03.826Z,24.39
2018-08-22T18:16:32.481Z,24.21
2018-08-22T18:19:02.106Z,24.05
2018-08-22T18:21:38.883Z,23.92
2018-08-22T18:24:08.593Z,23.81
2018-08-22T18:26:37.254Z,23.73
2018-08-22T18:29:05.936Z,23.66
2018-08-22T18:31:35.835Z,23.57
2018-08-22T18:34:05.029Z,23.53
2018-08-22T18:36:33.670Z,23.39
2018-08-22T18:39:07.044Z,23.21
2018-08-22T18:41:35.980Z,23.06
2018-08-22T18:44:04.776Z,22.94
2018-08-22T18:46:33.501Z,22.84
2018-08-22T18:49:02.880Z,22.76
2018-08-22T18:51:33.753Z,22.69
2018-08-22T18:54:04.173Z,22.66
2018-08-22T18:56:32.784Z,22.64
2018-08-22T18:59:12.552Z,22.54
2018-08-22T19:01:41.492Z,22.49
2018-08-22T19:04:10.296Z,22.46
2018-08-22T19:06:39.090Z,22.45
2018-08-22T19:09:08.168Z,22.44
2018-08-22T19:11:36.831Z,22.43
2018-08-22T19:14:06.591Z,22.40
2018-08-22T19:16:35.398Z,22.36
2018-08-22T19:19:04.250Z,22.29
2018-08-22T19:21:33.033Z,22.24
2018-08-22T19:24:05.617Z,22.17
2018-08-22T19:26:34.403Z,22.12
2018-08-22T19:29:05.365Z,22.09
2018-08-22T19:31:34.305Z,22.06
2018-08-22T19:34:03.025Z,22.00
2018-08-22T19:36:31.749Z,21.97
2018-08-22T19:39:00.480Z,21.86
2018-08-22T19:41:34.144Z,21.86
2018-08-22T19:44:04.061Z,21.80
2018-08-22T19:46:32.793Z,21.76
2018-08-22T19:49:01.835Z,21.72
2018-08-22T19:51:30.487Z,21.68
2018-08-22T19:54:04.731Z,21.65
2018-08-22T19:56:33.637Z,21.62
2018-08-22T19:59:02.921Z,21.58
2018-08-22T20:01:33.396Z,21.56
2018-08-22T20:04:01.990Z,21.53
2018-08-22T20:06:31.650Z,21.51
2018-08-22T20:09:01.091Z,21.48
2018-08-22T20:11:32.049Z,21.44
2018-08-22T20:14:02.494Z,21.41
2018-08-22T20:16:31.237Z,21.39
2018-08-22T20:19:01.964Z,21.40
2018-08-22T20:21:32.812Z,21.37
2018-08-22T20:24:02.361Z,21.35
2018-08-22T20:26:31.633Z,21.33
2018-08-22T20:29:01.686Z,21.32
2018-08-22T20:31:30.599Z,21.31
2018-08-22T20:34:21.159Z,21.29
2018-08-22T20:36:50.437Z,21.29
2018-08-22T20:39:19.329Z,21.32
2018-08-22T20:41:49.627Z,21.31
2018-08-22T20:44:20.850Z,21.30
2018-08-22T20:46:50.009Z,21.26
2018-08-22T20:49:19.732Z,21.24
2018-08-22T20:51:48.733Z,21.22
2018-08-22T20:54:22.596Z,21.18
2018-08-22T20:56:56.483Z,21.17
2018-08-22T20:59:25.264Z,21.12
2018-08-22T21:01:56.345Z,21.10
2018-08-22T21:04:25.117Z,21.07
2018-08-22T21:06:53.754Z,21.05
2018-08-22T21:09:22.354Z,21.02
2018-08-22T21:11:51.614Z,20.98
2018-08-22T21:14:20.303Z,20.97
2018-08-22T21:16:49.265Z,20.93
2018-08-22T21:19:18.005Z,20.90
2018-08-22T21:21:46.612Z,20.87
2018-08-22T21:24:15.304Z,20.89
2018-08-22T21:26:46.132Z,20.90
2018-08-22T21:29:14.997Z,20.89
2018-08-22T21:31:43.762Z,20.89
2018-08-22T21:34:17.541Z,20.90
2018-08-22T21:36:46.733Z,20.91
2018-08-22T21:39:20.597Z,20.95
2018-08-22T21:41:50.695Z,21.00
2018-08-22T21:44:20.649Z,21.02
2018-08-22T21:47:11.481Z,21.03
2018-08-22T21:49:40.237Z,21.04
2018-08-22T21:52:08.873Z,21.02
2018-08-22T21:54:38.107Z,20.99
2018-08-22T21:57:06.785Z,20.97
2018-08-22T21:59:35.460Z,20.97
2018-08-22T22:02:11.094Z,20.92
2018-08-22T22:04:41.098Z,20.87
2018-08-22T22:07:10.973Z,20.84
2018-08-22T22:09:40.424Z,20.78
2018-08-22T22:12:14.249Z,20.74
2018-08-22T22:14:44.440Z,20.62
2018-08-22T22:17:13.193Z,20.52
2018-08-22T22:19:41.779Z,20.41
2018-08-22T22:22:10.326Z,20.35
2018-08-22T22:24:49.486Z,20.24
2018-08-22T22:27:18.168Z,20.15
2018-08-22T22:29:47.002Z,20.05
2018-08-22T22:32:15.745Z,19.95
2018-08-22T22:34:44.337Z,19.90
2018-08-22T22:37:13.337Z,19.90
2018-08-22T22:39:43.041Z,19.85
2018-08-22T22:42:17.391Z,19.81
2018-08-22T22:44:50.259Z,19.73
2018-08-22T22:47:24.295Z,19.64
2018-08-22T22:49:53.258Z,19.59
2018-08-22T22:52:30.230Z,19.54
2018-08-22T22:55:04.454Z,19.48
2018-08-22T22:57:34.799Z,19.43
2018-08-22T23:00:04.405Z,19.36
2018-08-22T23:02:33.791Z,19.24
2018-08-22T23:05:02.785Z,19.17
2018-08-22T23:07:39.501Z,19.11
2018-08-22T23:10:12.065Z,19.00
2018-08-22T23:12:43.051Z,18.97
2018-08-22T23:15:14.781Z,18.94
2018-08-22T23:17:43.929Z,18.82
2018-08-22T23:20:45.216Z,18.79
2018-08-22T23:23:26.885Z,18.73
2018-08-22T23:25:58.701Z,18.74
2018-08-22T23:28:27.410Z,18.78
2018-08-22T23:30:55.989Z,18.80
2018-08-22T23:33:24.749Z,18.79
2018-08-22T23:35:54.506Z,18.74
2018-08-22T23:38:28.458Z,18.72
2018-08-22T23:40:57.350Z,18.64
2018-08-22T23:43:26.477Z,18.51
2018-08-22T23:45:57.986Z,18.46
2018-08-22T23:48:31.708Z,18.35
2018-08-22T23:51:03.817Z,18.26
2018-08-22T23:53:38.467Z,18.18
2018-08-22T23:56:16.483Z,18.11
2018-08-22T23:58:46.133Z,18.02
